Time;durP1;ratioP1;P1;durP2;ratioP2;P2;SDS_P1;SDS_P2;PMS_P1;PMS_P2;Temp;Humidity;BMP_temperature;BMP_pressure;BME280_temperature;BME280_humidity;BME280_pressure;Samples;Min_cycle;Max_cycle;Signal;HPM_P1;HPM_P2
2023/06/16 00:00:37;;;;;;;8.40;5.50;;;;;;;20.23;61.01;99915.52;105834;1253;63933;-75
2023/06/16 00:03:03;;;;;;;9.60;6.10;;;;;;;20.21;61.09;99916.91;105799;1254;61332;-75
2023/06/16 00:05:30;;;;;;;11.20;5.70;;;;;;;20.18;61.30;99916.06;105733;1251;61346;-75
2023/06/16 00:08:02;;;;;;;10.50;5.50;;;;;;;20.15;61.26;99916.56;105954;1255;66457;-77
2023/06/16 00:10:30;;;;;;;7.70;5.20;;;;;;;20.13;61.45;99917.05;105996;1257;61345;-76
2023/06/16 00:12:56;;;;;;;7.70;5.50;;;;;;;20.12;61.52;99914.98;105918;1256;64199;-75
2023/06/16 00:15:24;;;;;;;8.70;5.40;;;;;;;20.11;61.47;99910.52;105734;1254;61214;-76
2023/06/16 00:17:52;;;;;;;9.80;5.50;;;;;;;20.09;61.51;99913.31;106092;1251;61349;-76
2023/06/16 00:20:19;;;;;;;7.30;5.60;;;;;;;20.05;61.55;99912.11;105865;1252;66008;-76
2023/06/16 00:22:50;;;;;;;10.00;5.40;;;;;;;20.01;61.57;99914.37;105760;1256;61217;-75
2023/06/16 00:25:18;;;;;;;12.80;5.50;;;;;;;19.99;61.67;99920.92;105951;1251;64132;-78
2023/06/16 00:27:45;;;;;;;8.60;5.30;;;;;;;19.96;61.70;99917.13;106004;1251;61240;-76
2023/06/16 00:30:12;;;;;;;10.80;6.10;;;;;;;19.94;61.74;99915.50;105888;1251;61211;-76
2023/06/16 00:32:39;;;;;;;8.30;6.20;;;;;;;19.92;61.80;99911.95;105843;1251;65965;-73
2023/06/16 00:35:07;;;;;;;8.60;6.10;;;;;;;19.89;61.96;99916.13;106139;1251;61345;-74
2023/06/16 00:37:36;;;;;;;10.10;6.30;;;;;;;19.86;62.00;99914.92;106028;1257;64046;-75
2023/06/16 00:40:05;;;;;;;13.00;6.90;;;;;;;19.83;62.10;99911.33;105957;1257;61281;-75
2023/06/16 00:42:32;;;;;;;9.10;5.90;;;;;;;19.81;62.18;99903.94;106080;1254;61777;-75
2023/06/16 00:45:00;;;;;;;8.60;6.20;;;;;;;19.80;62.29;99904.10;105719;1253;66135;-75
2023/06/16 00:47:27;;;;;;;10.10;6.50;;;;;;;19.79;62.48;99902.42;105973;1254;61191;-76
2023/06/16 00:49:53;;;;;;;11.10;6.40;;;;;;;19.78;62.44;99898.94;105873;1254;63850;-75
2023/06/16 00:52:21;;;;;;;11.80;6.10;;;;;;;19.77;62.51;99896.05;105898;1254;61230;-76
2023/06/16 00:54:48;;;;;;;10.30;5.90;;;;;;;19.74;62.52;99895.37;105805;1254;61330;-76
2023/06/16 00:57:17;;;;;;;8.00;5.80;;;;;;;19.73;62.45;99889.42;105787;1254;67884;-75
2023/06/16 00:59:45;;;;;;;7.00;5.30;;;;;;;19.71;62.58;99883.86;106014;1253;61226;-74
2023/06/16 01:02:16;;;;;;;8.80;5.60;;;;;;;19.70;62.56;99888.17;105962;1256;64262;-74
2023/06/16 01:04:46;;;;;;;7.10;5.50;;;;;;;19.67;62.53;99888.59;106014;1251;61272;-74
2023/06/16 01:07:28;;;;;;;8.30;5.60;;;;;;;19.62;62.49;99891.23;105883;1254;61339;-74
2023/06/16 01:10:14;;;;;;;8.30;5.80;;;;;;;19.57;62.57;99889.52;105900;1253;65998;-75
2023/06/16 01:12:41;;;;;;;7.70;5.70;;;;;;;19.52;62.55;99887.23;105923;1251;61298;-76
2023/06/16 01:15:12;;;;;;;9.50;5.70;;;;;;;19.47;62.56;99887.63;105859;1252;62954;-75
2023/06/16 01:17:44;;;;;;;8.80;5.90;;;;;;;19.43;62.43;99889.16;105821;1251;61265;-76
2023/06/16 01:20:22;;;;;;;11.50;5.80;;;;;;;19.38;62.56;99892.27;105872;1254;61385;-74
2023/06/16 01:22:57;;;;;;;8.70;5.60;;;;;;;19.36;62.54;99893.90;105896;1254;64791;-75
2023/06/16 01:25:24;;;;;;;13.00;5.70;;;;;;;19.34;62.61;99900.48;105726;1252;61372;-75
2023/06/16 01:27:52;;;;;;;7.40;5.60;;;;;;;19.31;62.71;99902.27;106258;1254;64119;-75
2023/06/16 01:30:24;;;;;;;9.20;5.70;;;;;;;19.29;62.79;99903.25;106562;1254;61377;-74
2023/06/16 01:32:56;;;;;;;7.00;5.00;;;;;;;19.26;62.75;99904.10;106099;1251;61334;-73
2023/06/16 01:35:24;;;;;;;11.30;5.50;;;;;;;19.24;62.81;99906.75;106408;1255;65777;-75
2023/06/16 01:37:52;;;;;;;9.80;5.50;;;;;;;19.22;62.92;99905.70;106270;1256;61238;-74
2023/06/16 01:40:19;;;;;;;9.50;5.40;;;;;;;19.21;63.02;99907.63;106065;1257;64097;-75
2023/06/16 01:42:47;;;;;;;10.30;6.10;;;;;;;19.21;63.07;99906.56;105821;1252;61300;-75
2023/06/16 01:45:14;;;;;;;10.00;6.30;;;;;;;19.21;63.19;99906.94;105880;1251;61282;-76
2023/06/16 01:47:43;;;;;;;8.40;6.40;;;;;;;19.21;63.20;99910.48;105923;1256;65860;-75
2023/06/16 01:50:11;;;;;;;7.80;7.00;;;;;;;19.22;63.13;99908.06;105794;1251;61298;-75
2023/06/16 01:52:38;;;;;;;9.40;6.90;;;;;;;19.22;63.13;99907.65;105706;1254;62815;-75
2023/06/16 01:55:05;;;;;;;9.50;7.20;;;;;;;19.21;63.17;99907.23;105870;1255;61291;-73
2023/06/16 01:57:33;;;;;;;11.60;7.20;;;;;;;19.20;63.22;99907.77;105943;1256;61300;-73
2023/06/16 02:00:21;;;;;;;14.60;8.00;;;;;;;19.18;63.23;99906.43;105940;1257;66042;-75
2023/06/16 02:02:51;;;;;;;10.10;7.50;;;;;;;19.15;63.20;99905.63;105832;1257;61134;-75
2023/06/16 02:05:21;;;;;;;10.60;7.10;;;;;;;19.16;63.24;99902.75;106018;1251;64000;-78
2023/06/16 02:07:50;;;;;;;10.60;7.20;;;;;;;19.17;63.29;99906.02;105671;1254;61279;-75
2023/06/16 02:10:18;;;;;;;9.90;7.50;;;;;;;19.16;63.25;99908.80;105976;1251;61365;-74
2023/06/16 02:12:46;;;;;;;12.30;7.20;;;;;;;19.14;63.32;99906.15;105836;1251;64515;-74
2023/06/16 02:15:12;;;;;;;10.70;7.10;;;;;;;19.12;63.33;99906.35;105743;1251;61348;-74
2023/06/16 02:17:47;;;;;;;8.00;6.70;;;;;;;19.12;63.32;99904.48;105883;1254;63997;-74
2023/06/16 02:20:14;;;;;;;8.70;7.30;;;;;;;19.12;63.43;99903.95;105821;1254;61389;-75
2023/06/16 02:22:40;;;;;;;9.70;7.30;;;;;;;19.11;63.59;99901.85;105922;1251;61151;-77
2023/06/16 02:25:07;;;;;;;11.50;7.70;;;;;;;19.12;63.62;99901.11;105769;1256;65815;-75
2023/06/16 02:27:34;;;;;;;8.40;7.10;;;;;;;19.11;63.67;99901.89;105871;1251;61387;-74
2023/06/16 02:30:02;;;;;;;9.40;7.20;;;;;;;19.09;63.65;99900.36;105964;1252;64174;-76
2023/06/16 02:32:30;;;;;;;10.60;6.90;;;;;;;19.08;63.65;99901.91;105950;1251;61323;-75
2023/06/16 02:34:58;;;;;;;8.30;6.60;;;;;;;19.08;63.78;99897.80;106050;1251;61320;-75
2023/06/16 02:37:27;;;;;;;8.10;6.60;;;;;;;19.12;63.97;99900.57;105945;1256;65815;-75
2023/06/16 02:39:55;;;;;;;10.20;6.70;;;;;;;19.17;64.03;99899.59;105879;1251;61326;-75
2023/06/16 02:42:22;;;;;;;9.00;7.30;;;;;;;19.20;64.10;99897.39;105776;1254;64065;-75
2023/06/16 02:44:50;;;;;;;10.70;6.80;;;;;;;19.20;64.14;99897.71;105826;1251;61362;-75
2023/06/16 02:47:16;;;;;;;11.10;7.30;;;;;;;19.20;64.04;99898.33;105900;1257;61206;-75
2023/06/16 02:49:43;;;;;;;8.20;7.10;;;;;;;19.19;63.94;99902.20;105728;1253;65686;-75
2023/06/16 02:52:13;;;;;;;9.90;7.20;;;;;;;19.16;64.00;99905.48;105751;1254;61352;-75
2023/06/16 02:54:41;;;;;;;9.80;7.00;;;;;;;19.17;64.20;99909.06;105678;1259;63916;-75
2023/06/16 02:57:09;;;;;;;10.90;7.50;;;;;;;19.17;64.13;99909.42;105870;1256;61263;-75
2023/06/16 02:59:43;;;;;;;12.90;6.80;;;;;;;19.17;64.17;99908.32;105708;1256;61195;-76
2023/06/16 03:02:10;;;;;;;8.90;6.60;;;;;;;19.21;64.25;99911.22;105977;1256;66712;-76
2023/06/16 03:04:55;;;;;;;9.50;6.20;;;;;;;19.28;64.48;99918.21;105892;1253;61321;-75
2023/06/16 03:07:31;;;;;;;11.20;6.50;;;;;;;19.37;64.67;99920.73;105823;1254;62571;-74
2023/06/16 03:09:59;;;;;;;7.70;6.10;;;;;;;19.47;64.69;99921.14;105840;1253;61291;-77
2023/06/16 03:12:26;;;;;;;8.60;6.10;;;;;;;19.55;64.60;99917.19;105804;1257;61318;-75
2023/06/16 03:15:01;;;;;;;8.70;5.40;;;;;;;19.61;64.53;99918.17;105910;1252;64595;-74
2023/06/16 03:17:30;;;;;;;6.40;5.10;;;;;;;19.68;64.54;99915.02;105481;1251;61347;-76
2023/06/16 03:19:57;;;;;;;10.10;4.80;;;;;;;19.74;64.41;99919.95;105788;1251;62609;-75
2023/06/16 03:22:31;;;;;;;9.50;4.60;;;;;;;19.82;64.23;99918.11;105752;1251;61282;-76
2023/06/16 03:25:02;;;;;;;7.70;4.50;;;;;;;19.90;64.01;99919.14;105720;1253;61311;-76
2023/06/16 03:27:31;;;;;;;7.60;4.50;;;;;;;19.99;63.46;99924.46;105699;1258;65861;-76
2023/06/16 03:30:04;;;;;;;7.60;3.10;;;;;;;20.07;63.08;99919.89;105802;1257;61250;-75
2023/06/16 03:32:52;;;;;;;7.70;4.30;;;;;;;20.14;62.78;99919.94;105892;1251;64146;-75
2023/06/16 03:35:19;;;;;;;6.80;4.00;;;;;;;20.20;62.40;99922.80;105925;1255;61141;-75
2023/06/16 03:37:46;;;;;;;5.50;4.00;;;;;;;20.26;61.95;99922.80;105954;1251;61275;-75
2023/06/16 03:40:14;;;;;;;8.00;4.10;;;;;;;20.34;61.65;99921.29;105869;1257;65921;-75
2023/06/16 03:42:41;;;;;;;7.50;4.20;;;;;;;20.40;61.44;99919.02;105684;1254;61289;-74
2023/06/16 03:45:09;;;;;;;7.70;4.10;;;;;;;20.47;61.22;99920.01;105989;1253;64119;-74
2023/06/16 03:47:35;;;;;;;5.20;4.20;;;;;;;20.53;61.00;99918.88;105824;1253;61232;-75
2023/06/16 03:50:03;;;;;;;8.20;3.90;;;;;;;20.58;60.72;99918.55;105842;1256;61212;-74
2023/06/16 03:52:30;;;;;;;6.50;4.00;;;;;;;20.65;60.48;99922.55;106028;1255;66042;-75
2023/06/16 03:54:57;;;;;;;12.80;3.90;;;;;;;20.71;60.18;99923.02;105849;1256;196751;-76
2023/06/16 03:57:23;;;;;;;9.00;3.70;;;;;;;20.74;59.94;99923.12;105975;1257;63894;-75
2023/06/16 03:59:50;;;;;;;8.90;3.70;;;;;;;20.79;59.53;99922.57;105806;1251;61330;-75
2023/06/16 04:02:17;;;;;;;7.00;3.80;;;;;;;20.87;59.21;99925.02;105850;1251;61240;-77
2023/06/16 04:04:47;;;;;;;9.80;3.90;;;;;;;20.94;58.75;99926.24;105895;1251;65947;-75
2023/06/16 04:07:18;;;;;;;5.70;3.40;;;;;;;21.01;58.42;99925.16;105827;1251;61326;-75
2023/06/16 04:09:47;;;;;;;6.00;3.40;;;;;;;21.08;58.05;99926.71;106050;1256;64017;-74
2023/06/16 04:12:14;;;;;;;7.20;3.40;;;;;;;21.15;57.71;99923.10;105644;1251;61280;-76
2023/06/16 04:14:41;;;;;;;5.80;3.80;;;;;;;21.23;57.51;99921.98;105841;1252;61412;-79
2023/06/16 04:17:08;;;;;;;6.00;3.30;;;;;;;21.29;57.15;99923.16;105951;1251;65084;-75
2023/06/16 04:19:35;;;;;;;4.80;3.20;;;;;;;21.34;56.75;99925.67;105955;1251;61419;-75
2023/06/16 04:22:02;;;;;;;8.10;3.50;;;;;;;21.39;56.25;99925.64;105675;1254;63690;-75
2023/06/16 04:24:35;;;;;;;9.30;3.30;;;;;;;21.47;55.81;99921.61;105691;1255;61243;-75
2023/06/16 04:27:02;;;;;;;7.60;3.00;;;;;;;21.54;55.35;99921.70;105927;1251;61273;-76
2023/06/16 04:29:29;;;;;;;7.40;3.20;;;;;;;21.61;54.94;99922.35;105901;1251;64782;-75
2023/06/16 04:31:59;;;;;;;6.60;3.40;;;;;;;21.67;54.61;99917.26;105816;1251;61253;-74
2023/06/16 04:34:26;;;;;;;5.90;3.20;;;;;;;21.73;54.36;99915.62;105835;1253;62830;-74
2023/06/16 04:36:57;;;;;;;5.80;3.50;;;;;;;21.79;54.09;99917.15;105823;1257;61333;-76
2023/06/16 04:39:27;;;;;;;9.70;3.30;;;;;;;21.86;53.89;99915.71;105882;1254;61231;-75
2023/06/16 04:41:55;;;;;;;7.00;3.40;;;;;;;21.93;53.65;99920.52;105676;1251;66126;-75
2023/06/16 04:44:22;;;;;;;8.60;3.50;;;;;;;21.99;53.68;99924.44;106048;1255;61186;-76
2023/06/16 04:46:49;;;;;;;8.90;3.30;;;;;;;22.04;53.27;99923.98;106153;1256;62628;-76
2023/06/16 04:49:16;;;;;;;8.30;3.40;;;;;;;22.11;53.15;99927.70;106028;1254;61326;-76
2023/06/16 04:51:44;;;;;;;13.20;3.50;;;;;;;22.18;53.13;99931.61;105918;1260;61222;-77
2023/06/16 04:54:10;;;;;;;5.20;3.30;;;;;;;22.21;52.93;99931.67;106118;1255;66500;-75
2023/06/16 04:56:39;;;;;;;9.00;3.10;;;;;;;22.25;52.61;99931.37;106074;1252;61106;-76
2023/06/16 04:59:06;;;;;;;4.60;3.40;;;;;;;22.29;52.44;99933.36;105963;1253;64130;-76
2023/06/16 05:01:33;;;;;;;8.70;3.30;;;;;;;22.34;52.35;99933.72;106154;1251;61316;-76
2023/06/16 05:04:01;;;;;;;8.10;3.30;;;;;;;22.40;52.37;99927.86;106170;1251;61192;-76
2023/06/16 05:06:28;;;;;;;10.20;3.80;;;;;;;22.47;52.48;99929.80;106039;1259;65891;-75
2023/06/16 05:08:55;;;;;;;5.80;3.00;;;;;;;22.54;52.35;99930.08;106168;1251;61329;-75
2023/06/16 05:11:23;;;;;;;6.10;3.40;;;;;;;22.59;52.20;99926.35;106202;1255;61301;-76
2023/06/16 05:13:50;;;;;;;5.50;3.10;;;;;;;22.65;52.13;99924.42;106464;1251;61233;-76
2023/06/16 05:16:19;;;;;;;9.10;3.40;;;;;;;22.72;51.79;99924.61;106246;1252;61285;-76
2023/06/16 05:18:45;;;;;;;5.40;3.00;;;;;;;22.80;51.50;99921.60;106017;1251;64781;-77
2023/06/16 05:21:13;;;;;;;7.00;3.10;;;;;;;22.88;51.30;99920.82;106201;1251;61342;-75
2023/06/16 05:23:39;;;;;;;7.30;2.90;;;;;;;22.95;51.24;99920.67;106036;1254;64593;-77
2023/06/16 05:26:06;;;;;;;7.80;3.00;;;;;;;23.04;50.93;99917.95;106023;1251;61342;-77
2023/06/16 05:28:33;;;;;;;9.40;3.70;;;;;;;23.13;50.89;99915.13;105993;1251;61317;-76
2023/06/16 05:31:00;;;;;;;7.30;3.30;;;;;;;23.19;50.64;99914.43;106056;1252;66061;-77
2023/06/16 05:33:27;;;;;;;5.00;3.10;;;;;;;23.25;50.59;99913.08;106000;1256;61394;-76
2023/06/16 05:35:53;;;;;;;7.20;2.90;;;;;;;23.34;50.47;99917.92;105901;1254;71561;-76
2023/06/16 05:38:21;;;;;;;6.00;3.10;;;;;;;23.40;50.17;99916.80;106068;1254;61205;-75
2023/06/16 05:40:48;;;;;;;6.30;3.00;;;;;;;23.45;49.93;99920.84;106308;1254;61291;-76
2023/06/16 05:43:15;;;;;;;5.60;2.90;;;;;;;23.50;49.70;99920.48;105997;1252;66189;-78
2023/06/16 05:45:43;;;;;;;7.30;2.90;;;;;;;23.52;49.33;99920.66;106161;1251;61259;-77
2023/06/16 05:48:10;;;;;;;6.40;2.90;;;;;;;23.54;49.11;99920.24;105910;1256;64001;-72
2023/06/16 05:50:38;;;;;;;6.20;3.00;;;;;;;23.57;49.13;99922.51;106006;1252;61213;-74
2023/06/16 05:53:05;;;;;;;8.30;3.20;;;;;;;23.60;49.18;99924.41;106088;1251;61281;-80
2023/06/16 05:55:32;;;;;;;7.20;3.00;;;;;;;23.67;49.39;99922.55;106043;1256;64796;-79
2023/06/16 05:58:00;;;;;;;6.40;2.90;;;;;;;23.76;49.20;99918.92;106048;1253;61336;-74
2023/06/16 06:00:29;;;;;;;7.20;3.10;;;;;;;23.84;48.66;99914.80;106176;1256;64010;-78
2023/06/16 06:02:59;;;;;;;6.90;2.90;;;;;;;23.91;48.36;99920.96;106255;1254;61335;-73
2023/06/16 06:05:29;;;;;;;6.80;2.70;;;;;;;23.98;47.80;99923.36;106033;1251;61328;-71
2023/06/16 06:07:56;;;;;;;6.10;2.80;;;;;;;24.06;47.97;99925.01;106068;1256;66006;-72
2023/06/16 06:10:23;;;;;;;5.20;3.30;;;;;;;24.17;47.92;99926.52;105998;1251;61374;-72
2023/06/16 06:12:53;;;;;;;7.00;2.70;;;;;;;24.28;47.34;99921.85;106097;1251;64097;-71
2023/06/16 06:15:19;;;;;;;5.10;2.70;;;;;;;24.37;47.03;99924.20;106307;1251;61272;-72
2023/06/16 06:17:48;;;;;;;9.40;2.90;;;;;;;24.47;46.89;99923.27;106157;1251;61298;-74
2023/06/16 06:20:15;;;;;;;7.70;3.00;;;;;;;24.58;46.62;99926.23;105801;1253;65977;-71
2023/06/16 06:22:43;;;;;;;11.40;3.00;;;;;;;24.63;46.15;99928.63;105784;1254;61158;-72
2023/06/16 06:25:10;;;;;;;6.60;2.80;;;;;;;24.70;45.97;99928.01;105912;1256;62514;-71
2023/06/16 06:27:37;;;;;;;6.90;2.80;;;;;;;24.79;45.85;99927.91;105985;1256;61244;-71
2023/06/16 06:30:05;;;;;;;7.90;2.80;;;;;;;24.88;45.59;99925.39;105948;1256;61119;-72
2023/06/16 06:32:33;;;;;;;7.30;3.20;;;;;;;24.95;45.35;99923.17;106000;1251;65971;-71
2023/06/16 06:35:00;;;;;;;14.30;3.00;;;;;;;25.04;45.10;99925.88;106136;1251;61295;-72
2023/06/16 06:37:30;;;;;;;9.10;2.80;;;;;;;25.12;44.62;99927.05;106095;1251;64034;-71
2023/06/16 06:39:57;;;;;;;7.50;3.00;;;;;;;25.20;44.47;99929.22;106132;1254;61354;-70
2023/06/16 06:42:26;;;;;;;4.30;2.60;;;;;;;25.29;44.48;99931.30;105814;1254;61371;-71
2023/06/16 06:44:55;;;;;;;6.00;2.80;;;;;;;25.39;44.04;99925.72;105811;1256;66932;-72
2023/06/16 06:47:22;;;;;;;9.90;2.70;;;;;;;25.45;43.65;99922.05;105724;1260;61486;-72
2023/06/16 06:49:52;;;;;;;5.80;2.70;;;;;;;25.48;43.41;99919.89;105967;1254;64156;-72
2023/06/16 06:52:19;;;;;;;8.30;2.90;;;;;;;25.51;43.36;99920.36;105905;1251;61381;-72
2023/06/16 06:54:46;;;;;;;7.90;2.80;;;;;;;25.58;43.36;99916.29;105969;1255;61217;-73
2023/06/16 06:57:13;;;;;;;4.50;2.70;;;;;;;25.66;43.33;99912.34;105877;1259;65712;-71
2023/06/16 06:59:40;;;;;;;4.40;2.90;;;;;;;25.77;43.33;99908.17;105926;1251;61332;-72
2023/06/16 07:02:08;;;;;;;5.90;2.80;;;;;;;25.88;43.01;99902.88;106179;1256;64072;-72
2023/06/16 07:04:38;;;;;;;7.80;2.90;;;;;;;26.01;43.10;99902.66;105914;1259;61337;-71
2023/06/16 07:07:05;;;;;;;7.10;2.50;;;;;;;26.12;42.24;99902.29;105885;1254;61333;-73
2023/06/16 07:09:33;;;;;;;6.10;2.70;;;;;;;26.17;41.59;99900.84;105830;1258;65903;-73
2023/06/16 07:12:01;;;;;;;7.20;2.80;;;;;;;26.20;41.34;99904.73;105873;1254;61353;-71
2023/06/16 07:14:29;;;;;;;6.50;2.50;;;;;;;26.23;41.12;99902.69;105911;1251;62652;-71
2023/06/16 07:16:57;;;;;;;11.30;2.80;;;;;;;26.23;40.90;99902.54;105811;1251;61317;-72
2023/06/16 07:19:26;;;;;;;10.40;2.80;;;;;;;26.24;40.83;99900.61;105757;1256;61110;-72
2023/06/16 07:21:57;;;;;;;6.30;2.80;;;;;;;26.31;40.91;99896.27;105828;1259;66645;-72
2023/06/16 07:24:24;;;;;;;8.70;2.70;;;;;;;26.38;40.62;99896.18;106066;1256;61097;-72
2023/06/16 07:26:50;;;;;;;5.60;2.80;;;;;;;26.43;40.13;99892.02;106030;1251;63968;-74
2023/06/16 07:29:18;;;;;;;7.20;2.60;;;;;;;26.51;39.99;99893.29;105887;1254;61310;-75
2023/06/16 07:31:45;;;;;;;7.90;2.50;;;;;;;26.62;39.88;99891.13;105959;1251;61294;-73
2023/06/16 07:34:12;;;;;;;7.40;2.60;;;;;;;26.74;40.00;99890.84;105905;1251;65893;-72
2023/06/16 07:36:38;;;;;;;8.30;2.70;;;;;;;26.85;39.61;99889.39;105702;1254;61237;-74
2023/06/16 07:39:05;;;;;;;6.30;2.70;;;;;;;26.96;39.46;99893.62;105895;1254;64114;-73
2023/06/16 07:41:32;;;;;;;5.80;2.40;;;;;;;27.06;39.52;99892.92;105999;1256;61343;-74
2023/06/16 07:43:59;;;;;;;5.50;2.80;;;;;;;27.17;39.47;99892.88;106102;1251;61221;-75
2023/06/16 07:46:26;;;;;;;6.40;2.50;;;;;;;27.27;39.03;99891.86;106010;1251;66166;-75
2023/06/16 07:48:53;;;;;;;5.00;2.50;;;;;;;27.33;38.34;99891.54;105855;1254;61269;-78
2023/06/16 07:51:21;;;;;;;4.70;2.70;;;;;;;27.34;38.27;99892.05;106132;1257;61338;-71
2023/06/16 07:53:49;;;;;;;4.50;2.50;;;;;;;27.37;38.28;99891.71;105906;1254;61237;-73
2023/06/16 07:56:18;;;;;;;4.80;2.60;;;;;;;27.38;38.34;99888.55;105878;1257;61363;-72
2023/06/16 07:58:45;;;;;;;9.60;2.80;;;;;;;27.44;38.51;99888.44;106085;1257;66410;-74
2023/06/16 08:01:11;;;;;;;6.80;2.40;;;;;;;27.50;38.32;99893.30;106043;1254;61140;-73
2023/06/16 08:03:38;;;;;;;7.70;2.40;;;;;;;27.52;38.14;99890.77;106105;1251;63851;-74
2023/06/16 08:06:06;;;;;;;7.50;2.50;;;;;;;27.55;38.13;99893.46;106181;1251;61224;-74
2023/06/16 08:08:32;;;;;;;7.10;2.50;;;;;;;27.63;37.95;99888.45;106177;1255;61333;-73
2023/06/16 08:10:59;;;;;;;7.50;2.30;;;;;;;27.75;38.07;99884.81;105942;1256;66075;-75
2023/06/16 08:13:26;;;;;;;5.50;2.60;;;;;;;27.91;37.95;99886.17;106063;1251;61211;-75
2023/06/16 08:15:52;;;;;;;6.20;2.30;;;;;;;28.07;37.56;99892.27;106752;1251;63975;-73
2023/06/16 08:18:19;;;;;;;4.50;2.60;;;;;;;28.17;37.05;99895.74;106492;1257;61225;-75
2023/06/16 08:20:47;;;;;;;7.10;2.50;;;;;;;28.23;36.99;99894.80;106237;1251;61336;-74
2023/06/16 08:23:13;;;;;;;6.60;2.60;;;;;;;28.29;36.47;99895.18;106220;1257;65798;-74
2023/06/16 08:25:41;;;;;;;6.90;2.70;;;;;;;28.31;36.70;99897.28;106107;1251;61345;-74
2023/06/16 08:28:08;;;;;;;8.70;2.50;;;;;;;28.36;37.06;99895.46;105984;1251;63784;-74
2023/06/16 08:30:35;;;;;;;6.60;2.40;;;;;;;28.48;36.82;99896.23;106111;1251;61240;-74
2023/06/16 08:33:17;;;;;;;9.30;2.70;;;;;;;28.57;35.97;99889.92;105950;1252;61280;-74
2023/06/16 08:35:44;;;;;;;6.90;2.50;;;;;;;28.60;36.28;99892.30;106054;1251;64735;-74
2023/06/16 08:38:11;;;;;;;8.50;2.70;;;;;;;28.69;36.56;99890.35;106248;1251;61279;-74
2023/06/16 08:40:38;;;;;;;7.00;2.50;;;;;;;28.81;36.85;99893.77;106066;1257;64004;-73
2023/06/16 08:43:05;;;;;;;5.70;2.40;;;;;;;28.92;36.15;99887.90;106064;1251;61284;-73
2023/06/16 08:45:33;;;;;;;12.70;2.90;;;;;;;28.98;35.73;99891.02;105909;1254;61237;-74
2023/06/16 08:48:00;;;;;;;10.10;2.70;;;;;;;29.06;35.90;99892.47;106177;1256;66087;-75
2023/06/16 08:50:27;;;;;;;9.30;2.50;;;;;;;29.17;35.79;99889.91;106203;1254;61240;-74
2023/06/16 08:52:53;;;;;;;9.20;2.80;;;;;;;29.23;35.40;99888.84;106258;1252;61230;-74
2023/06/16 08:55:20;;;;;;;10.20;2.70;;;;;;;29.25;35.20;99887.84;106043;1252;61342;-74
2023/06/16 08:57:50;;;;;;;6.40;2.40;;;;;;;29.33;35.13;99879.59;105812;1256;61301;-71
2023/06/16 09:00:17;;;;;;;9.60;2.40;;;;;;;29.43;34.95;99879.52;106032;1252;67844;-73
2023/06/16 09:02:49;;;;;;;7.10;2.60;;;;;;;29.50;34.46;99878.56;105847;1251;61240;-74
2023/06/16 09:05:18;;;;;;;6.40;2.50;;;;;;;29.58;34.76;99882.64;105911;1257;63980;-74
2023/06/16 09:07:47;;;;;;;5.90;2.60;;;;;;;29.68;34.83;99882.23;106198;1256;61399;-71
2023/06/16 09:10:13;;;;;;;5.80;2.50;;;;;;;29.79;34.85;99878.17;105999;1253;61285;-70
2023/06/16 09:12:40;;;;;;;7.30;2.40;;;;;;;29.95;34.73;99875.69;105961;1256;66035;-70
2023/06/16 09:15:09;;;;;;;7.40;2.40;;;;;;;30.11;34.07;99878.83;106062;1257;61332;-70
2023/06/16 09:17:37;;;;;;;7.40;2.10;;;;;;;30.24;33.37;99876.61;106203;1251;64419;-70
2023/06/16 09:20:13;;;;;;;6.40;2.50;;;;;;;30.31;32.93;99877.65;106182;1256;61225;-72
2023/06/16 09:22:41;;;;;;;7.40;2.40;;;;;;;30.38;33.11;99877.08;106115;1251;61285;-72
2023/06/16 09:25:11;;;;;;;4.50;2.10;;;;;;;30.46;32.71;99871.02;106342;1254;67882;-70
2023/06/16 09:27:50;;;;;;;5.90;2.30;;;;;;;30.57;32.52;99867.48;106275;1254;61179;-71
2023/06/16 09:30:19;;;;;;;7.10;2.50;;;;;;;30.72;32.43;99866.46;106221;1251;64023;-71
2023/06/16 09:32:49;;;;;;;6.30;2.30;;;;;;;30.87;32.11;99866.91;106068;1256;61327;-73
2023/06/16 09:35:20;;;;;;;6.20;2.30;;;;;;;31.01;31.74;99868.32;106194;1251;62965;-70
2023/06/16 09:37:48;;;;;;;7.00;2.30;;;;;;;31.12;30.85;99867.20;106053;1254;65922;-71
2023/06/16 09:40:16;;;;;;;6.10;2.30;;;;;;;31.18;30.95;99865.54;106044;1256;63131;-69
2023/06/16 09:42:46;;;;;;;15.00;2.80;;;;;;;31.28;30.84;99865.64;106114;1257;63901;-71
2023/06/16 09:45:14;;;;;;;8.10;2.60;;;;;;;31.42;30.86;99861.22;106372;1252;61240;-72
2023/06/16 09:47:47;;;;;;;6.70;2.30;;;;;;;31.57;30.60;99864.63;106132;1256;61346;-71
2023/06/16 09:50:16;;;;;;;5.80;2.50;;;;;;;31.67;30.43;99859.71;106159;1253;64545;-71
2023/06/16 09:52:45;;;;;;;8.20;2.20;;;;;;;31.74;30.18;99857.86;105889;1254;61359;-70
2023/06/16 09:55:14;;;;;;;6.20;2.30;;;;;;;31.80;29.95;99857.71;106319;1257;63915;-70
2023/06/16 09:57:44;;;;;;;6.90;2.40;;;;;;;31.88;30.26;99857.59;106125;1252;61344;-71
2023/06/16 10:00:17;;;;;;;5.90;2.30;;;;;;;32.02;30.14;99857.24;106158;1255;61685;-70
2023/06/16 10:02:51;;;;;;;5.10;2.20;;;;;;;32.20;29.80;99855.69;105923;1257;67597;-71
2023/06/16 10:05:22;;;;;;;5.00;2.40;;;;;;;32.34;29.64;99854.19;106384;1257;61183;-71
2023/06/16 10:07:57;;;;;;;6.40;2.20;;;;;;;32.51;29.65;99849.44;106195;1255;64751;-70
2023/06/16 10:10:28;;;;;;;7.00;2.30;;;;;;;32.72;29.35;99849.67;105939;1251;61215;-72
2023/06/16 10:12:56;;;;;;;7.10;2.50;;;;;;;32.87;28.96;99848.58;106091;1254;61340;-72
2023/06/16 10:15:26;;;;;;;6.40;2.30;;;;;;;32.95;28.56;99847.08;106199;1257;66032;-71
2023/06/16 10:18:02;;;;;;;7.30;2.40;;;;;;;33.02;28.34;99847.20;106029;1254;61250;-73
2023/06/16 10:20:37;;;;;;;10.20;2.50;;;;;;;33.09;28.67;99845.24;105736;1254;64022;-73
2023/06/16 10:23:04;;;;;;;7.40;2.30;;;;;;;33.16;28.15;99841.26;105981;1256;61434;-72
2023/06/16 10:25:33;;;;;;;7.50;2.30;;;;;;;33.22;28.37;99839.23;105989;1257;61176;-72
2023/06/16 10:28:01;;;;;;;7.20;2.20;;;;;;;33.34;28.23;99829.74;106102;1252;64861;-71
2023/06/16 10:30:29;;;;;;;15.00;3.00;;;;;;;33.43;28.02;99828.43;106314;1254;61307;-72
2023/06/16 10:32:57;;;;;;;6.50;2.20;;;;;;;33.51;27.66;99825.98;106011;1257;62889;-74
2023/06/16 10:35:23;;;;;;;7.80;2.30;;;;;;;33.58;27.92;99830.06;106177;1257;61209;-71
2023/06/16 10:37:54;;;;;;;7.40;2.50;;;;;;;33.74;27.94;99824.13;106032;1252;61180;-72
2023/06/16 10:40:22;;;;;;;9.00;2.30;;;;;;;33.88;27.64;99824.44;106150;1251;64467;-72
2023/06/16 10:42:56;;;;;;;5.70;2.30;;;;;;;34.03;27.47;99820.79;106079;1256;61397;-72
2023/06/16 10:45:28;;;;;;;4.10;2.30;;;;;;;34.18;27.40;99821.84;106074;1251;65428;-72
2023/06/16 10:48:01;;;;;;;4.50;2.20;;;;;;;34.35;27.54;99819.56;105829;1256;61241;-73
2023/06/16 10:50:40;;;;;;;4.40;2.20;;;;;;;34.45;27.18;99820.89;106222;1256;61237;-75
2023/06/16 10:53:14;;;;;;;4.20;2.20;;;;;;;34.49;27.19;99819.58;106198;1260;66292;-74
2023/06/16 10:55:43;;;;;;;7.30;2.30;;;;;;;34.61;27.02;99820.84;106221;1255;61240;-75
2023/06/16 10:58:14;;;;;;;4.00;2.20;;;;;;;34.75;27.03;99822.64;106189;1257;64487;-75
2023/06/16 11:01:04;;;;;;;11.70;2.40;;;;;;;34.86;26.92;99822.55;106056;1251;61205;-75
2023/06/16 11:03:34;;;;;;;3.50;1.90;;;;;;;34.95;26.38;99816.23;106127;1251;62780;-74
2023/06/16 11:06:02;;;;;;;8.60;2.20;;;;;;;35.03;26.41;99811.95;106036;1257;66173;-74
2023/06/16 11:08:30;;;;;;;3.50;2.00;;;;;;;35.17;26.08;99809.37;106241;1256;61212;-74
2023/06/16 11:11:05;;;;;;;9.90;2.40;;;;;;;35.26;26.27;99812.02;106022;1256;65618;-74
2023/06/16 11:13:38;;;;;;;3.90;2.10;;;;;;;35.38;26.07;99812.19;105898;1258;61215;-75
2023/06/16 11:16:05;;;;;;;11.80;2.30;;;;;;;35.51;25.57;99809.52;106233;1252;61224;-73
2023/06/16 11:18:33;;;;;;;7.20;2.70;;;;;;;35.61;25.99;99806.59;106009;1258;67459;-75
2023/06/16 11:21:06;;;;;;;8.90;2.20;;;;;;;35.74;25.92;99805.48;106128;1257;61278;-74
2023/06/16 11:23:36;;;;;;;7.40;2.60;;;;;;;35.89;25.71;99807.23;106222;1253;65069;-73
2023/06/16 11:26:07;;;;;;;7.90;2.40;;;;;;;35.95;25.48;99806.40;106085;1258;61183;-75
2023/06/16 11:28:40;;;;;;;8.80;2.40;;;;;;;36.01;25.74;99800.23;106229;1251;61305;-75
2023/06/16 11:31:09;;;;;;;5.90;2.20;;;;;;;36.08;25.31;99797.38;106057;1256;67712;-76